Time;durP1;ratioP1;P1;durP2;ratioP2;P2;SDS_P1;SDS_P2;PMS_P1;PMS_P2;Temp;Humidity;BMP_temperature;BMP_pressure;BME280_temperature;BME280_humidity;BME280_pressure;Samples;Min_cycle;Max_cycle;Signal;HPM_P1;HPM_P2
2021/07/19 00:01:02;;;;;;;19.40;8.48;;;;;;;;;;5033646;28;20025;-61
2021/07/19 00:03:28;;;;;;;18.10;8.63;;;;;;;;;;5033734;28;20460;-61
2021/07/19 00:05:55;;;;;;;19.75;9.30;;;;;;;;;;5051151;28;20392;-60
2021/07/19 00:08:21;;;;;;;21.10;9.05;;;;;;;;;;5036541;28;20064;-61
2021/07/19 00:10:47;;;;;;;20.92;9.15;;;;;;;;;;5055439;28;20079;-61
2021/07/19 00:13:13;;;;;;;17.25;8.27;;;;;;;;;;5037602;28;20124;-61
2021/07/19 00:15:39;;;;;;;17.85;8.82;;;;;;;;;;5037542;28;20120;-62
2021/07/19 00:18:05;;;;;;;20.25;9.65;;;;;;;;;;5055383;28;20029;-61
2021/07/19 00:20:31;;;;;;;22.90;9.00;;;;;;;;;;5037225;28;20033;-61
2021/07/19 00:22:57;;;;;;;22.27;10.80;;;;;;;;;;5055345;28;20047;-61
2021/07/19 00:25:25;;;;;;;23.90;10.82;;;;;;;;;;5055202;28;20047;-62
2021/07/19 00:27:55;;;;;;;34.60;22.08;;;;;;;;;;5055350;28;20082;-61
2021/07/19 00:30:21;;;;;;;28.45;17.58;;;;;;;;;;5036837;28;20491;-61
2021/07/19 00:32:47;;;;;;;34.60;25.67;;;;;;;;;;5054566;28;20025;-61
2021/07/19 00:35:14;;;;;;;24.05;14.00;;;;;;;;;;5037010;28;20036;-61
2021/07/19 00:37:40;;;;;;;23.60;11.45;;;;;;;;;;5037483;28;20035;-61
2021/07/19 00:40:09;;;;;;;21.77;10.38;;;;;;;;;;5036704;28;20060;-58
2021/07/19 00:42:36;;;;;;;21.10;10.88;;;;;;;;;;5036437;28;20083;-59
2021/07/19 00:45:03;;;;;;;19.52;10.10;;;;;;;;;;5054338;28;20060;-61
2021/07/19 00:47:29;;;;;;;24.83;14.50;;;;;;;;;;5053948;28;20021;-58
2021/07/19 00:49:55;;;;;;;27.60;15.55;;;;;;;;;;5054354;28;20079;-61
2021/07/19 00:52:21;;;;;;;26.13;17.20;;;;;;;;;;5036975;28;20021;-61
2021/07/19 00:54:48;;;;;;;20.52;10.45;;;;;;;;;;5036763;28;20032;-59
2021/07/19 00:57:15;;;;;;;18.85;9.85;;;;;;;;;;5054583;28;20025;-60
2021/07/19 00:59:42;;;;;;;22.50;11.73;;;;;;;;;;5036675;28;20025;-61
2021/07/19 01:02:08;;;;;;;21.17;12.55;;;;;;;;;;5054287;28;20063;-60
2021/07/19 01:04:34;;;;;;;26.85;15.00;;;;;;;;;;5053998;28;20416;-61
2021/07/19 01:07:04;;;;;;;23.60;12.50;;;;;;;;;;5053713;28;20049;-61
2021/07/19 01:09:30;;;;;;;30.92;20.33;;;;;;;;;;5035898;28;20029;-59
2021/07/19 01:11:57;;;;;;;26.33;14.70;;;;;;;;;;5035708;28;20095;-61
2021/07/19 01:14:24;;;;;;;24.92;15.07;;;;;;;;;;5035688;28;20435;-60
2021/07/19 01:16:50;;;;;;;30.20;19.30;;;;;;;;;;5036095;28;20436;-61
2021/07/19 01:19:17;;;;;;;20.92;11.77;;;;;;;;;;5036193;28;20032;-61
2021/07/19 01:22:01;;;;;;;20.90;11.50;;;;;;;;;;5054222;28;20442;-57
2021/07/19 01:24:30;;;;;;;23.88;12.95;;;;;;;;;;5036293;28;20078;-61
2021/07/19 01:27:05;;;;;;;21.23;12.18;;;;;;;;;;5053854;28;20021;-59
2021/07/19 01:29:33;;;;;;;21.95;11.88;;;;;;;;;;5036177;28;20036;-61
2021/07/19 01:31:59;;;;;;;20.83;10.15;;;;;;;;;;5053852;28;20029;-61
2021/07/19 01:34:27;;;;;;;20.33;10.65;;;;;;;;;;5036417;28;20032;-61
2021/07/19 01:36:57;;;;;;;20.88;9.70;;;;;;;;;;5035974;28;20025;-60
2021/07/19 01:39:28;;;;;;;20.88;9.85;;;;;;;;;;5053745;28;20459;-60
2021/07/19 01:41:55;;;;;;;20.73;10.70;;;;;;;;;;5036159;28;20028;-61
2021/07/19 01:44:22;;;;;;;21.85;10.93;;;;;;;;;;5036174;28;20033;-61
2021/07/19 01:46:48;;;;;;;31.13;19.60;;;;;;;;;;5035664;28;20021;-61
2021/07/19 01:49:15;;;;;;;22.73;12.75;;;;;;;;;;5036054;28;20037;-61
2021/07/19 01:51:41;;;;;;;24.00;13.02;;;;;;;;;;5035538;28;20025;-61
2021/07/19 01:54:07;;;;;;;21.92;10.25;;;;;;;;;;5053592;28;20021;-61
2021/07/19 01:56:34;;;;;;;19.63;10.40;;;;;;;;;;5053444;28;20465;-59
2021/07/19 01:59:00;;;;;;;22.40;12.07;;;;;;;;;;5053501;28;20071;-61
2021/07/19 02:01:26;;;;;;;18.88;9.43;;;;;;;;;;5053364;28;20025;-61
2021/07/19 02:03:53;;;;;;;20.90;10.85;;;;;;;;;;5053232;28;20085;-61
2021/07/19 02:06:20;;;;;;;22.75;10.18;;;;;;;;;;5053219;28;20480;-60
2021/07/19 02:08:49;;;;;;;27.95;17.45;;;;;;;;;;5035673;28;20482;-62
2021/07/19 02:11:15;;;;;;;28.15;17.80;;;;;;;;;;5035355;28;20123;-61
2021/07/19 02:13:43;;;;;;;20.80;9.88;;;;;;;;;;5053245;28;20098;-61
2021/07/19 02:16:09;;;;;;;20.92;10.63;;;;;;;;;;5035304;28;20025;-61
2021/07/19 02:18:40;;;;;;;21.30;11.48;;;;;;;;;;5053163;28;20026;-61
2021/07/19 02:21:07;;;;;;;19.13;10.30;;;;;;;;;;5098583;22;20503;-64
2021/07/19 02:23:34;;;;;;;21.08;11.35;;;;;;;;;;5073948;28;20111;-64
2021/07/19 02:26:01;;;;;;;20.33;10.88;;;;;;;;;;5073548;28;20111;-64
2021/07/19 02:28:27;;;;;;;23.80;11.15;;;;;;;;;;5092115;28;20052;-64
2021/07/19 02:30:54;;;;;;;26.70;16.38;;;;;;;;;;5069694;28;20138;-64
2021/07/19 02:33:20;;;;;;;38.20;26.95;;;;;;;;;;5053857;28;20119;-64
2021/07/19 02:35:48;;;;;;;29.20;21.17;;;;;;;;;;5071246;28;20020;-63
2021/07/19 02:38:14;;;;;;;21.05;10.43;;;;;;;;;;5071917;28;20035;-64
2021/07/19 02:40:41;;;;;;;24.65;11.70;;;;;;;;;;5053536;28;20028;-64
2021/07/19 02:43:08;;;;;;;22.95;13.52;;;;;;;;;;5053674;28;20515;-63
2021/07/19 02:45:35;;;;;;;21.77;13.27;;;;;;;;;;5053506;28;20115;-63
2021/07/19 02:48:02;;;;;;;24.27;11.73;;;;;;;;;;5071763;28;20032;-63
2021/07/19 02:50:29;;;;;;;22.13;10.93;;;;;;;;;;5071528;28;20266;-63
2021/07/19 02:52:59;;;;;;;22.02;11.00;;;;;;;;;;5053431;28;20071;-64
2021/07/19 02:55:26;;;;;;;21.88;11.70;;;;;;;;;;5071295;28;20109;-62
2021/07/19 02:57:52;;;;;;;21.33;10.80;;;;;;;;;;5053415;28;20097;-64
2021/07/19 03:00:19;;;;;;;23.85;11.80;;;;;;;;;;5053374;28;20021;-63
2021/07/19 03:02:51;;;;;;;20.73;10.57;;;;;;;;;;5071144;28;20031;-64
2021/07/19 03:05:18;;;;;;;20.83;10.57;;;;;;;;;;5071053;28;20029;-64
2021/07/19 03:07:46;;;;;;;22.67;11.48;;;;;;;;;;5071417;28;20061;-64
2021/07/19 03:10:12;;;;;;;22.13;11.02;;;;;;;;;;5071275;28;20035;-64
2021/07/19 03:12:41;;;;;;;23.48;11.95;;;;;;;;;;5071083;28;20423;-64
2021/07/19 03:15:08;;;;;;;23.90;12.05;;;;;;;;;;5070859;28;20064;-64
2021/07/19 03:17:38;;;;;;;24.05;11.52;;;;;;;;;;5071248;28;20070;-64
2021/07/19 03:20:06;;;;;;;23.40;11.88;;;;;;;;;;5071099;28;20039;-64
2021/07/19 03:22:32;;;;;;;24.38;12.32;;;;;;;;;;5071095;28;20043;-64
2021/07/19 03:24:59;;;;;;;30.83;13.38;;;;;;;;;;5070995;28;20070;-64
2021/07/19 03:27:25;;;;;;;26.08;13.88;;;;;;;;;;5052678;28;20028;-63
2021/07/19 03:29:52;;;;;;;23.23;13.48;;;;;;;;;;5053125;28;20484;-62
2021/07/19 03:32:19;;;;;;;25.08;12.40;;;;;;;;;;5070761;28;20029;-64
2021/07/19 03:34:46;;;;;;;22.83;12.02;;;;;;;;;;5070709;28;20619;-63
2021/07/19 03:37:12;;;;;;;22.42;11.95;;;;;;;;;;5052511;28;20028;-63
2021/07/19 03:39:39;;;;;;;26.90;12.82;;;;;;;;;;5052825;28;20020;-63
2021/07/19 03:42:05;;;;;;;22.17;12.32;;;;;;;;;;5074658;28;20029;-63
2021/07/19 03:44:32;;;;;;;22.92;11.68;;;;;;;;;;5059208;28;20047;-64
2021/07/19 03:46:58;;;;;;;25.15;12.13;;;;;;;;;;5077070;28;20024;-64
2021/07/19 03:49:25;;;;;;;22.33;12.60;;;;;;;;;;5059535;28;20463;-64
2021/07/19 03:51:51;;;;;;;23.13;12.60;;;;;;;;;;5059291;28;20020;-64
2021/07/19 03:54:17;;;;;;;23.75;12.55;;;;;;;;;;5077372;28;20025;-64
2021/07/19 03:56:43;;;;;;;24.02;12.45;;;;;;;;;;5058890;28;20119;-64
2021/07/19 03:59:09;;;;;;;24.55;13.68;;;;;;;;;;5076943;28;20044;-64
2021/07/19 04:01:36;;;;;;;23.67;12.63;;;;;;;;;;5077271;28;20476;-64
2021/07/19 04:04:10;;;;;;;25.58;12.77;;;;;;;;;;5077602;28;20035;-64
2021/07/19 04:06:38;;;;;;;24.13;13.48;;;;;;;;;;5077273;28;20395;-62
2021/07/19 04:09:05;;;;;;;23.52;13.93;;;;;;;;;;5077310;28;20364;-62
2021/07/19 04:11:32;;;;;;;24.67;13.77;;;;;;;;;;5059102;28;20024;-64
2021/07/19 04:13:58;;;;;;;25.90;13.05;;;;;;;;;;5059225;28;20067;-64
2021/07/19 04:16:24;;;;;;;26.05;13.75;;;;;;;;;;5077028;28;20035;-64
2021/07/19 04:18:51;;;;;;;27.20;13.63;;;;;;;;;;5059146;28;20119;-63
2021/07/19 04:21:18;;;;;;;24.23;13.35;;;;;;;;;;5076965;28;20036;-63
2021/07/19 04:23:44;;;;;;;29.15;14.82;;;;;;;;;;5077009;28;20031;-63
2021/07/19 04:26:14;;;;;;;26.35;14.63;;;;;;;;;;5058854;28;20028;-63
2021/07/19 04:28:41;;;;;;;28.38;15.35;;;;;;;;;;5077081;28;20074;-62
2021/07/19 04:31:07;;;;;;;24.08;14.45;;;;;;;;;;5076832;28;20427;-62
2021/07/19 04:33:33;;;;;;;26.38;14.18;;;;;;;;;;5059123;28;20111;-64
2021/07/19 04:35:59;;;;;;;25.98;14.40;;;;;;;;;;5076896;28;20060;-64
2021/07/19 04:38:25;;;;;;;27.67;14.85;;;;;;;;;;5058957;28;20013;-64
2021/07/19 04:40:53;;;;;;;25.15;13.77;;;;;;;;;;5076216;28;20031;-64
2021/07/19 04:43:19;;;;;;;25.42;14.32;;;;;;;;;;5058572;28;20070;-63
2021/07/19 04:45:46;;;;;;;26.52;14.40;;;;;;;;;;5076024;28;20468;-63
2021/07/19 04:48:13;;;;;;;27.75;14.05;;;;;;;;;;5076868;28;20025;-63
2021/07/19 04:50:39;;;;;;;26.55;14.45;;;;;;;;;;5058948;28;20112;-62
2021/07/19 04:53:05;;;;;;;26.67;14.20;;;;;;;;;;5056590;28;20380;-64
2021/07/19 04:55:32;;;;;;;25.42;15.27;;;;;;;;;;5055353;28;20077;-62
2021/07/19 04:57:59;;;;;;;23.90;14.45;;;;;;;;;;5073032;28;20113;-65
2021/07/19 05:00:26;;;;;;;26.35;14.60;;;;;;;;;;5055598;28;20024;-63
2021/07/19 05:02:53;;;;;;;28.65;15.00;;;;;;;;;;5055830;28;20034;-64
2021/07/19 05:05:21;;;;;;;27.95;14.30;;;;;;;;;;5055344;28;20029;-63
2021/07/19 05:07:47;;;;;;;28.23;14.77;;;;;;;;;;5055527;28;20025;-63
2021/07/19 05:10:14;;;;;;;24.52;13.90;;;;;;;;;;5073452;28;20488;-62
2021/07/19 05:12:43;;;;;;;22.88;13.93;;;;;;;;;;5073356;28;20043;-64
2021/07/19 05:15:10;;;;;;;24.55;14.27;;;;;;;;;;5073256;28;20048;-62
2021/07/19 05:17:36;;;;;;;29.17;14.95;;;;;;;;;;5073538;28;20099;-65
2021/07/19 05:20:03;;;;;;;27.63;15.73;;;;;;;;;;5073158;28;20046;-64
2021/07/19 05:22:29;;;;;;;22.95;14.63;;;;;;;;;;5052521;28;20029;-63
2021/07/19 05:24:57;;;;;;;27.33;15.60;;;;;;;;;;5069095;28;20023;-64
2021/07/19 05:27:24;;;;;;;26.85;14.40;;;;;;;;;;5072850;28;20492;-64
2021/07/19 05:29:50;;;;;;;26.65;14.68;;;;;;;;;;5055030;28;20032;-64
2021/07/19 05:32:17;;;;;;;25.58;14.45;;;;;;;;;;5060309;28;20036;-64
2021/07/19 05:34:43;;;;;;;30.52;17.70;;;;;;;;;;5052657;28;20052;-64
2021/07/19 05:37:09;;;;;;;29.55;14.90;;;;;;;;;;5052591;28;20481;-65
2021/07/19 05:39:35;;;;;;;26.40;15.05;;;;;;;;;;5054960;28;20036;-65
2021/07/19 05:42:01;;;;;;;26.15;15.38;;;;;;;;;;5072764;28;20024;-63
2021/07/19 05:44:27;;;;;;;25.73;13.55;;;;;;;;;;5054929;28;20017;-68
2021/07/19 05:46:53;;;;;;;24.17;14.55;;;;;;;;;;5054744;28;20029;-68
2021/07/19 05:49:19;;;;;;;27.77;15.23;;;;;;;;;;5072824;28;20655;-69
2021/07/19 05:51:45;;;;;;;24.20;14.77;;;;;;;;;;5072736;28;20029;-68
2021/07/19 05:54:11;;;;;;;23.83;13.95;;;;;;;;;;5054970;28;20484;-68
2021/07/19 05:56:37;;;;;;;22.58;13.13;;;;;;;;;;5070470;28;20029;-67
2021/07/19 05:59:03;;;;;;;27.45;17.40;;;;;;;;;;5034437;28;20476;-68
2021/07/19 06:01:29;;;;;;;22.48;13.77;;;;;;;;;;5052390;28;20485;-68
2021/07/19 06:03:56;;;;;;;22.50;12.65;;;;;;;;;;5052170;28;20029;-69
2021/07/19 06:06:21;;;;;;;24.27;13.80;;;;;;;;;;5051366;28;20031;-69
2021/07/19 06:08:48;;;;;;;27.35;13.80;;;;;;;;;;5051984;28;20021;-69
2021/07/19 06:11:13;;;;;;;24.52;13.43;;;;;;;;;;5052625;28;20028;-69
2021/07/19 06:13:39;;;;;;;23.42;13.25;;;;;;;;;;5052245;28;20021;-68
2021/07/19 06:16:05;;;;;;;21.75;13.60;;;;;;;;;;5051976;28;20029;-68
2021/07/19 06:18:31;;;;;;;22.90;13.65;;;;;;;;;;5052375;28;20385;-68
2021/07/19 06:20:57;;;;;;;23.40;13.35;;;;;;;;;;5051967;28;20028;-69
2021/07/19 06:23:23;;;;;;;23.58;12.77;;;;;;;;;;5051959;28;20098;-68
2021/07/19 06:25:51;;;;;;;22.25;12.73;;;;;;;;;;5052112;28;20361;-69
2021/07/19 06:28:17;;;;;;;21.98;13.50;;;;;;;;;;5054174;28;20031;-68
2021/07/19 06:30:43;;;;;;;20.02;12.93;;;;;;;;;;5071645;28;20107;-68
2021/07/19 06:33:09;;;;;;;23.40;14.30;;;;;;;;;;5071661;28;20373;-68
2021/07/19 06:35:35;;;;;;;23.13;13.27;;;;;;;;;;5071141;28;20031;-69
2021/07/19 06:38:01;;;;;;;22.17;13.15;;;;;;;;;;5071513;28;20028;-69
2021/07/19 06:40:27;;;;;;;22.13;12.85;;;;;;;;;;5052652;28;20108;-68
2021/07/19 06:42:53;;;;;;;22.13;13.27;;;;;;;;;;5053456;28;20499;-67
2021/07/19 06:45:20;;;;;;;28.73;13.93;;;;;;;;;;5071014;28;20066;-68
2021/07/19 06:47:46;;;;;;;21.77;12.40;;;;;;;;;;5071426;28;20024;-69
2021/07/19 06:50:13;;;;;;;27.17;14.43;;;;;;;;;;5053501;28;20488;-67
2021/07/19 06:52:40;;;;;;;23.27;13.10;;;;;;;;;;5071353;28;20036;-68
2021/07/19 06:55:07;;;;;;;24.80;12.80;;;;;;;;;;5054222;28;20495;-69
2021/07/19 06:57:33;;;;;;;20.80;11.90;;;;;;;;;;5071448;28;20377;-67
2021/07/19 06:59:59;;;;;;;25.45;13.10;;;;;;;;;;5053260;28;20488;-67
2021/07/19 07:02:25;;;;;;;22.15;13.77;;;;;;;;;;5071419;28;20048;-68
2021/07/19 07:04:51;;;;;;;26.17;13.52;;;;;;;;;;5053194;28;20028;-67
2021/07/19 07:07:17;;;;;;;20.92;13.38;;;;;;;;;;5071235;28;20025;-67
2021/07/19 07:09:43;;;;;;;22.25;13.07;;;;;;;;;;5053238;28;20031;-67
2021/07/19 07:12:09;;;;;;;25.85;14.00;;;;;;;;;;5071134;28;20388;-67
2021/07/19 07:14:35;;;;;;;24.25;12.80;;;;;;;;;;5053114;28;20455;-67
2021/07/19 07:17:01;;;;;;;20.15;12.20;;;;;;;;;;5052396;28;20118;-65
2021/07/19 07:19:27;;;;;;;19.88;12.55;;;;;;;;;;5071024;28;20035;-66
2021/07/19 07:21:53;;;;;;;24.42;12.70;;;;;;;;;;5070540;28;20028;-67
2021/07/19 07:24:20;;;;;;;23.90;11.80;;;;;;;;;;5052840;28;20566;-67
2021/07/19 07:26:46;;;;;;;20.45;11.65;;;;;;;;;;5052756;28;20024;-67
2021/07/19 07:29:12;;;;;;;23.90;12.73;;;;;;;;;;5052793;28;20024;-67
2021/07/19 07:31:38;;;;;;;23.85;12.90;;;;;;;;;;5070851;28;20028;-67
2021/07/19 07:34:05;;;;;;;23.27;12.02;;;;;;;;;;5052850;28;20078;-67
2021/07/19 07:36:33;;;;;;;25.17;12.55;;;;;;;;;;5070516;28;20119;-68
2021/07/19 07:38:59;;;;;;;23.52;12.77;;;;;;;;;;5070680;28;20093;-63
2021/07/19 07:41:25;;;;;;;21.83;12.35;;;;;;;;;;5070573;28;20508;-65
2021/07/19 07:43:51;;;;;;;23.13;13.98;;;;;;;;;;5052539;28;20053;-62
2021/07/19 07:46:17;;;;;;;22.15;12.63;;;;;;;;;;5070553;28;20369;-61
2021/07/19 07:48:43;;;;;;;22.20;13.75;;;;;;;;;;5052604;28;20548;-63
2021/07/19 07:51:10;;;;;;;20.25;12.73;;;;;;;;;;5070605;28;20025;-64
2021/07/19 07:53:37;;;;;;;23.75;13.55;;;;;;;;;;5070658;28;20016;-65
2021/07/19 07:56:03;;;;;;;20.02;12.20;;;;;;;;;;5070346;28;20158;-63
2021/07/19 07:58:30;;;;;;;21.77;13.60;;;;;;;;;;5070609;28;20095;-64
2021/07/19 08:00:56;;;;;;;23.65;13.88;;;;;;;;;;5070458;28;20024;-64
2021/07/19 08:03:22;;;;;;;22.05;12.88;;;;;;;;;;5052880;28;20047;-64
2021/07/19 08:05:48;;;;;;;21.70;12.88;;;;;;;;;;5052006;28;20028;-65
2021/07/19 08:08:14;;;;;;;26.58;13.60;;;;;;;;;;5052377;28;20375;-65
2021/07/19 08:10:41;;;;;;;21.73;13.73;;;;;;;;;;5052174;28;20122;-64
2021/07/19 08:13:07;;;;;;;25.08;15.02;;;;;;;;;;5052269;28;20039;-64
2021/07/19 08:15:33;;;;;;;23.08;14.15;;;;;;;;;;5070744;28;20384;-65
2021/07/19 08:18:00;;;;;;;22.38;14.32;;;;;;;;;;5052160;28;20048;-64
2021/07/19 08:20:26;;;;;;;23.85;14.80;;;;;;;;;;5052232;28;20020;-65
2021/07/19 08:22:52;;;;;;;21.08;14.10;;;;;;;;;;5093964;22;20083;-58
2021/07/19 08:25:18;;;;;;;22.38;14.90;;;;;;;;;;5054110;28;20024;-56
2021/07/19 08:27:45;;;;;;;19.60;14.80;;;;;;;;;;5055219;28;20021;-58
2021/07/19 08:30:12;;;;;;;23.08;15.27;;;;;;;;;;5076838;28;20029;-60
2021/07/19 08:32:38;;;;;;;23.85;15.10;;;;;;;;;;5044013;28;20044;-60
2021/07/19 08:35:09;;;;;;;22.02;14.50;;;;;;;;;;5038571;28;20405;-59
2021/07/19 08:37:36;;;;;;;23.20;15.23;;;;;;;;;;5056507;28;20021;-60
2021/07/19 08:40:02;;;;;;;22.45;15.10;;;;;;;;;;5056489;28;20404;-61
2021/07/19 08:42:28;;;;;;;25.20;16.17;;;;;;;;;;5055775;28;20167;-61
2021/07/19 08:44:54;;;;;;;23.42;15.05;;;;;;;;;;5055916;28;20461;-62
2021/07/19 08:47:20;;;;;;;22.95;14.98;;;;;;;;;;5037448;28;20032;-60
2021/07/19 08:49:46;;;;;;;22.58;15.82;;;;;;;;;;5037869;28;20017;-60
2021/07/19 08:52:16;;;;;;;20.70;15.70;;;;;;;;;;5037563;28;20432;-59
2021/07/19 08:54:47;;;;;;;22.48;15.90;;;;;;;;;;5056410;28;20500;-59
2021/07/19 08:57:14;;;;;;;23.58;15.55;;;;;;;;;;5038236;28;20044;-60
2021/07/19 08:59:40;;;;;;;22.73;15.60;;;;;;;;;;5056346;28;20028;-59
2021/07/19 09:02:06;;;;;;;21.70;15.07;;;;;;;;;;5055975;28;20036;-59
2021/07/19 09:04:32;;;;;;;22.85;15.88;;;;;;;;;;5037851;28;20021;-59
2021/07/19 09:06:59;;;;;;;22.83;16.40;;;;;;;;;;5056240;28;20111;-60
2021/07/19 09:09:28;;;;;;;28.77;16.75;;;;;;;;;;5037973;28;20036;-60
2021/07/19 09:11:55;;;;;;;23.85;16.55;;;;;;;;;;5037864;28;20024;-59
2021/07/19 09:14:21;;;;;;;21.23;14.73;;;;;;;;;;5054960;28;20469;-59
2021/07/19 09:16:48;;;;;;;23.58;15.20;;;;;;;;;;5054288;28;20056;-59
2021/07/19 09:19:18;;;;;;;24.05;15.43;;;;;;;;;;5054214;28;20029;-61
2021/07/19 09:21:45;;;;;;;21.90;14.43;;;;;;;;;;5053886;28;20476;-60
2021/07/19 09:24:16;;;;;;;20.65;14.23;;;;;;;;;;5036267;28;20076;-60
2021/07/19 09:26:44;;;;;;;21.88;14.63;;;;;;;;;;5054676;28;20495;-61
2021/07/19 09:29:11;;;;;;;22.50;15.00;;;;;;;;;;5054434;28;20056;-60
2021/07/19 09:31:45;;;;;;;23.38;15.00;;;;;;;;;;5054093;28;20059;-59
2021/07/19 09:34:12;;;;;;;23.38;15.20;;;;;;;;;;5053771;28;20024;-59
2021/07/19 09:36:38;;;;;;;23.52;14.57;;;;;;;;;;5035596;28;20542;-61
2021/07/19 09:39:05;;;;;;;22.98;13.98;;;;;;;;;;5035526;28;20032;-55
2021/07/19 09:41:31;;;;;;;22.80;14.90;;;;;;;;;;5053291;28;20021;-58
2021/07/19 09:43:57;;;;;;;24.45;15.30;;;;;;;;;;5054229;28;20028;-60
2021/07/19 09:46:34;;;;;;;23.23;15.48;;;;;;;;;;5054348;28;20021;-61
2021/07/19 09:49:00;;;;;;;22.33;15.00;;;;;;;;;;5035282;28;20017;-59
2021/07/19 09:51:27;;;;;;;22.30;14.07;;;;;;;;;;5035356;28;20056;-60
2021/07/19 09:53:53;;;;;;;22.67;14.63;;;;;;;;;;5035317;28;20032;-59
2021/07/19 09:56:21;;;;;;;24.23;14.18;;;;;;;;;;5035612;28;20021;-61
2021/07/19 09:58:52;;;;;;;24.95;14.50;;;;;;;;;;5053198;28;20017;-59
2021/07/19 10:01:28;;;;;;;25.10;15.10;;;;;;;;;;5036212;28;20178;-60
2021/07/19 10:04:15;;;;;;;23.60;14.00;;;;;;;;;;5054296;28;20024;-61
2021/07/19 10:06:41;;;;;;;23.58;15.38;;;;;;;;;;5053764;28;20288;-60
2021/07/19 10:09:08;;;;;;;22.25;14.88;;;;;;;;;;5035667;28;20055;-61
2021/07/19 10:11:35;;;;;;;23.75;14.85;;;;;;;;;;5035140;28;20025;-60
2021/07/19 10:14:02;;;;;;;25.13;14.63;;;;;;;;;;5035644;28;20028;-60
2021/07/19 10:16:31;;;;;;;23.17;14.45;;;;;;;;;;5035767;28;20052;-57
2021/07/19 10:18:58;;;;;;;22.08;14.27;;;;;;;;;;5036429;28;20025;-60
2021/07/19 10:21:29;;;;;;;22.75;15.95;;;;;;;;;;5055213;28;20052;-60
2021/07/19 10:24:07;;;;;;;21.33;15.20;;;;;;;;;;5055449;28;20021;-61
2021/07/19 10:26:33;;;;;;;20.40;14.48;;;;;;;;;;5035779;28;20049;-60
2021/07/19 10:29:02;;;;;;;22.45;15.05;;;;;;;;;;5054566;28;20051;-61
2021/07/19 10:31:29;;;;;;;22.20;14.60;;;;;;;;;;5036277;28;20033;-61
2021/07/19 10:33:59;;;;;;;21.05;13.95;;;;;;;;;;5053177;28;20025;-59
2021/07/19 10:36:40;;;;;;;24.30;14.57;;;;;;;;;;5035310;28;20430;-60
2021/07/19 10:39:11;;;;;;;27.02;15.38;;;;;;;;;;5034553;28;20066;-60
2021/07/19 10:41:38;;;;;;;21.52;14.43;;;;;;;;;;5052137;28;20022;-61
2021/07/19 10:44:08;;;;;;;22.70;14.05;;;;;;;;;;5052393;28;20044;-58
2021/07/19 10:46:36;;;;;;;21.42;14.57;;;;;;;;;;5053875;28;20080;-60
2021/07/19 10:49:06;;;;;;;21.50;14.77;;;;;;;;;;5035733;28;20028;-60
2021/07/19 10:51:40;;;;;;;22.60;13.68;;;;;;;;;;5034908;28;20017;-58
2021/07/19 10:54:12;;;;;;;27.42;15.75;;;;;;;;;;5052645;28;20025;-60
2021/07/19 10:56:38;;;;;;;21.35;14.52;;;;;;;;;;5035380;28;20053;-60
2021/07/19 10:59:04;;;;;;;21.80;15.07;;;;;;;;;;5036333;28;20362;-60
2021/07/19 11:01:31;;;;;;;22.00;15.65;;;;;;;;;;5036583;28;20032;-60
2021/07/19 11:04:02;;;;;;;24.13;15.68;;;;;;;;;;5053951;28;20485;-61
2021/07/19 11:06:35;;;;;;;22.67;15.32;;;;;;;;;;5053515;28;20061;-60
2021/07/19 11:09:05;;;;;;;23.80;15.93;;;;;;;;;;5053626;28;20473;-53
2021/07/19 11:11:32;;;;;;;22.60;16.33;;;;;;;;;;5053297;28;20115;-61
2021/07/19 11:14:02;;;;;;;21.60;14.55;;;;;;;;;;5052770;28;20091;-59
2021/07/19 11:16:37;;;;;;;23.50;14.13;;;;;;;;;;5053368;28;20107;-61
2021/07/19 11:19:04;;;;;;;23.15;14.77;;;;;;;;;;5035479;28;20496;-61
2021/07/19 11:21:32;;;;;;;23.05;15.45;;;;;;;;;;5034636;28;20029;-61
2021/07/19 11:24:27;;;;;;;24.15;16.00;;;;;;;;;;5033679;28;20018;-61
2021/07/19 11:27:00;;;;;;;21.83;14.85;;;;;;;;;;5013228;28;20025;-60
2021/07/19 11:29:33;;;;;;;22.63;15.07;;;;;;;;;;5052290;28;20023;-53
2021/07/19 11:32:18;;;;;;;21.33;15.55;;;;;;;;;;5051484;28;20401;-60
2021/07/19 11:34:45;;;;;;;21.60;15.55;;;;;;;;;;5052189;28;20033;-61
2021/07/19 11:37:12;;;;;;;21.92;15.60;;;;;;;;;;5052245;28;20515;-60
2021/07/19 11:39:45;;;;;;;23.20;15.23;;;;;;;;;;5052721;28;20112;-60
2021/07/19 11:42:12;;;;;;;20.88;14.75;;;;;;;;;;5051536;28;20036;-53
2021/07/19 11:44:38;;;;;;;23.23;15.40;;;;;;;;;;5034767;28;20488;-59
2021/07/19 11:47:06;;;;;;;22.65;15.15;;;;;;;;;;5052276;28;20036;-59
2021/07/19 11:49:32;;;;;;;19.88;14.43;;;;;;;;;;5052668;28;20025;-52
2021/07/19 11:51:58;;;;;;;20.85;14.73;;;;;;;;;;5052315;28;20025;-59
2021/07/19 11:54:25;;;;;;;21.92;15.27;;;;;;;;;;5051721;28;20029;-59
2021/07/19 11:56:52;;;;;;;22.33;15.00;;;;;;;;;;5051688;28;20032;-59
2021/07/19 11:59:22;;;;;;;22.08;14.52;;;;;;;;;;5034159;28;20035;-59
2021/07/19 12:01:59;;;;;;;22.33;14.75;;;;;;;;;;5053032;28;20525;-59
2021/07/19 12:04:38;;;;;;;20.13;14.27;;;;;;;;;;5056567;28;20052;-55
2021/07/19 12:07:04;;;;;;;20.05;13.57;;;;;;;;;;5056655;28;20150;-60
2021/07/19 12:09:30;;;;;;;22.65;14.07;;;;;;;;;;5057273;28;20108;-59
2021/07/19 12:11:57;;;;;;;21.17;14.25;;;;;;;;;;5056658;28;20543;-60
2021/07/19 12:14:23;;;;;;;20.80;14.20;;;;;;;;;;5056756;28;20029;-59
2021/07/19 12:16:49;;;;;;;20.02;14.30;;;;;;;;;;5056446;28;20541;-58
2021/07/19 12:19:16;;;;;;;22.35;14.05;;;;;;;;;;5056631;28;20033;-58
2021/07/19 12:21:53;;;;;;;22.17;14.30;;;;;;;;;;5056074;28;20029;-60
2021/07/19 12:24:20;;;;;;;20.20;13.35;;;;;;;;;;5056195;28;20365;-58
2021/07/19 12:26:48;;;;;;;21.45;14.20;;;;;;;;;;5056039;28;20021;-60
2021/07/19 12:29:14;;;;;;;25.38;14.85;;;;;;;;;;5038363;28;20036;-61
2021/07/19 12:31:48;;;;;;;20.65;13.10;;;;;;;;;;5055550;28;20029;-57
2021/07/19 12:34:16;;;;;;;21.42;14.05;;;;;;;;;;5057378;28;20115;-59
2021/07/19 12:36:43;;;;;;;24.25;14.82;;;;;;;;;;5056285;28;20029;-59
2021/07/19 12:39:13;;;;;;;21.30;13.85;;;;;;;;;;5038821;28;20025;-59
2021/07/19 12:41:39;;;;;;;22.35;14.38;;;;;;;;;;5055333;28;20021;-60
2021/07/19 12:44:06;;;;;;;22.73;13.73;;;;;;;;;;5036592;28;20047;-60
2021/07/19 12:46:34;;;;;;;23.48;13.25;;;;;;;;;;5055638;28;20029;-60
2021/07/19 12:49:00;;;;;;;22.15;13.63;;;;;;;;;;5056194;28;20021;-60
2021/07/19 12:51:27;;;;;;;22.27;13.57;;;;;;;;;;5038363;28;20032;-60
2021/07/19 12:54:04;;;;;;;22.73;14.05;;;;;;;;;;5055303;28;20040;-59
2021/07/19 12:56:31;;;;;;;24.92;14.27;;;;;;;;;;5055108;28;20022;-60
2021/07/19 12:59:01;;;;;;;27.98;13.15;;;;;;;;;;5054720;28;20055;-54
2021/07/19 13:01:33;;;;;;;21.17;12.50;;;;;;;;;;5036947;28;20071;-59
2021/07/19 13:04:00;;;;;;;23.13;12.63;;;;;;;;;;5037550;28;20021;-57
2021/07/19 13:06:26;;;;;;;22.00;11.90;;;;;;;;;;5036818;28;20028;-57
2021/07/19 13:08:52;;;;;;;24.67;13.52;;;;;;;;;;5037213;28;20021;-59
2021/07/19 13:11:18;;;;;;;21.48;12.30;;;;;;;;;;5036890;28;20392;-59
2021/07/19 13:13:44;;;;;;;24.55;12.70;;;;;;;;;;5054748;28;20032;-60
2021/07/19 13:16:10;;;;;;;22.83;12.90;;;;;;;;;;5054931;28;20025;-61
2021/07/19 13:18:36;;;;;;;21.90;12.02;;;;;;;;;;5056294;28;20021;-59
2021/07/19 13:21:07;;;;;;;22.13;12.45;;;;;;;;;;5055281;28;20410;-59
2021/07/19 13:23:34;;;;;;;21.38;11.88;;;;;;;;;;5055970;28;20017;-58
2021/07/19 13:26:10;;;;;;;19.92;12.48;;;;;;;;;;5067257;28;20017;-59
2021/07/19 13:28:37;;;;;;;22.45;13.45;;;;;;;;;;5057243;28;20025;-58
2021/07/19 13:31:04;;;;;;;22.10;12.68;;;;;;;;;;5044860;28;20056;-60
2021/07/19 13:33:30;;;;;;;20.77;12.75;;;;;;;;;;5045697;28;20032;-60
2021/07/19 13:35:57;;;;;;;23.40;13.75;;;;;;;;;;5025464;28;20463;-62
2021/07/19 13:38:32;;;;;;;23.55;15.85;;;;;;;;;;5025244;28;20126;-55
2021/07/19 13:40:58;;;;;;;22.85;15.85;;;;;;;;;;5028348;28;20438;-61
2021/07/19 13:43:24;;;;;;;21.73;15.27;;;;;;;;;;5043515;28;20100;-60
2021/07/19 13:45:50;;;;;;;24.50;16.67;;;;;;;;;;5045377;28;20112;-61
2021/07/19 13:48:16;;;;;;;23.13;15.70;;;;;;;;;;5024005;28;20032;-59
2021/07/19 13:50:42;;;;;;;24.02;17.10;;;;;;;;;;5034567;28;20029;-61
2021/07/19 13:53:09;;;;;;;23.00;17.00;;;;;;;;;;5042837;28;20041;-61
2021/07/19 13:55:38;;;;;;;22.50;16.17;;;;;;;;;;5026626;28;20028;-58
2021/07/19 13:58:05;;;;;;;21.90;17.20;;;;;;;;;;5027902;28;20021;-60
2021/07/19 14:00:32;;;;;;;21.45;17.35;;;;;;;;;;5043266;28;20018;-61
2021/07/19 14:02:58;;;;;;;23.63;19.05;;;;;;;;;;5043097;28;20025;-60
2021/07/19 14:05:24;;;;;;;22.52;17.73;;;;;;;;;;5026756;28;20020;-61
2021/07/19 14:07:50;;;;;;;21.85;17.52;;;;;;;;;;5043222;28;20082;-57
2021/07/19 14:10:16;;;;;;;23.65;17.50;;;;;;;;;;5044008;28;20017;-61
2021/07/19 14:12:42;;;;;;;21.98;17.48;;;;;;;;;;5045629;28;20419;-56
2021/07/19 14:15:09;;;;;;;24.25;18.15;;;;;;;;;;5046017;28;20112;-59
2021/07/19 14:17:35;;;;;;;23.70;18.77;;;;;;;;;;5026440;28;20083;-61
2021/07/19 14:20:01;;;;;;;22.45;18.45;;;;;;;;;;5043627;28;20120;-61